Time;durP1;ratioP1;P1;durP2;ratioP2;P2;SDS_P1;SDS_P2;PMS_P1;PMS_P2;Temp;Humidity;BMP_temperature;BMP_pressure;BME280_temperature;BME280_humidity;BME280_pressure;Samples;Min_cycle;Max_cycle;Signal;HPM_P1;HPM_P2
2022/09/23 00:00:43;;;;;;;13.50;12.10;;;;;;;;;;4432166;32;20458;-71
2022/09/23 00:03:08;;;;;;;;;;;;;;;;;;4421280;32;20450;-69
2022/09/23 00:05:34;;;;;;;15.23;12.57;;;;;;;;;;4420881;32;20273;-69
2022/09/23 00:07:59;;;;;;;16.17;12.88;;;;;;;;;;4422843;32;20095;-69
2022/09/23 00:10:24;;;;;;;;;;;;;;;;;;4422961;32;20075;-69
2022/09/23 00:12:50;;;;;;;17.45;12.73;;;;;;;;;;4421194;32;19932;-69
2022/09/23 00:15:15;;;;;;;16.62;13.57;;;;;;;;;;4421906;32;20101;-69
2022/09/23 00:17:41;;;;;;;17.02;13.20;;;;;;;;;;4436130;32;20346;-69
2022/09/23 00:20:08;;;;;;;;;;;;;;;;;;4437752;32;20030;-69
2022/09/23 00:22:34;;;;;;;16.75;12.40;;;;;;;;;;4436865;32;20329;-68
2022/09/23 00:24:59;;;;;;;27.92;12.68;;;;;;;;;;4436409;32;20080;-68
2022/09/23 00:27:25;;;;;;;21.90;13.55;;;;;;;;;;4436628;32;20017;-69
2022/09/23 00:29:50;;;;;;;;;;;;;;;;;;4435049;32;20097;-69
2022/09/23 00:32:15;;;;;;;15.48;13.43;;;;;;;;;;4435947;32;20232;-70
2022/09/23 00:34:42;;;;;;;15.73;12.95;;;;;;;;;;4435904;32;20108;-70
2022/09/23 00:37:07;;;;;;;20.98;14.68;;;;;;;;;;4435345;32;20131;-70
2022/09/23 00:39:32;;;;;;;24.52;15.43;;;;;;;;;;4438122;32;20328;-70
2022/09/23 00:41:57;;;;;;;;;;;;;;;;;;4436009;32;20065;-70
2022/09/23 00:44:58;;;;;;;16.45;13.98;;;;;;;;;;4436309;32;19970;-68
2022/09/23 00:47:28;;;;;;;17.50;14.38;;;;;;;;;;4375125;32;20155;-68
2022/09/23 00:50:14;;;;;;;18.15;13.55;;;;;;;;;;4425239;32;20018;-69
2022/09/23 00:52:39;;;;;;;19.42;13.85;;;;;;;;;;4426821;32;20046;-68
2022/09/23 00:55:07;;;;;;;19.33;14.23;;;;;;;;;;4422222;32;20064;-68
2022/09/23 00:57:34;;;;;;;20.30;13.07;;;;;;;;;;4421941;32;20053;-68
2022/09/23 00:59:59;;;;;;;17.50;12.98;;;;;;;;;;4420757;32;20057;-69
2022/09/23 01:02:25;;;;;;;14.85;13.23;;;;;;;;;;4422246;32;20075;-67
2022/09/23 01:04:50;;;;;;;;;;;;;;;;;;4421156;32;20400;-68
2022/09/23 01:07:16;;;;;;;16.55;13.88;;;;;;;;;;4420897;32;20013;-70
2022/09/23 01:09:41;;;;;;;;;;;;;;;;;;4420902;32;20128;-68
2022/09/23 01:12:09;;;;;;;17.42;13.25;;;;;;;;;;4420819;32;19952;-69
2022/09/23 01:14:41;;;;;;;22.05;15.55;;;;;;;;;;4408008;32;20122;-69
2022/09/23 01:17:26;;;;;;;21.98;14.63;;;;;;;;;;4421522;32;20021;-69
2022/09/23 01:19:51;;;;;;;17.25;13.55;;;;;;;;;;4421836;32;20022;-69
2022/09/23 01:22:21;;;;;;;18.02;13.75;;;;;;;;;;4428248;32;20056;-69
2022/09/23 01:24:55;;;;;;;21.40;14.65;;;;;;;;;;4437701;32;20048;-68
2022/09/23 01:27:43;;;;;;;19.62;14.95;;;;;;;;;;4436276;32;20412;-69
2022/09/23 01:30:13;;;;;;;16.77;14.50;;;;;;;;;;4424274;32;20022;-69
2022/09/23 01:32:41;;;;;;;19.67;14.23;;;;;;;;;;4420463;32;20065;-69
2022/09/23 01:35:11;;;;;;;19.42;14.50;;;;;;;;;;4422061;32;20083;-70
2022/09/23 01:37:45;;;;;;;20.95;15.02;;;;;;;;;;4435882;32;20030;-70
2022/09/23 01:40:33;;;;;;;22.35;15.60;;;;;;;;;;4437736;32;20097;-70
2022/09/23 01:43:05;;;;;;;19.60;14.68;;;;;;;;;;4408916;32;20034;-69
2022/09/23 01:45:32;;;;;;;18.52;14.45;;;;;;;;;;4434459;32;20123;-68
2022/09/23 01:48:09;;;;;;;16.65;13.27;;;;;;;;;;4424856;32;20329;-68
2022/09/23 01:53:21;;;;;;;18.73;14.90;;;;;;;;;;4423687;32;19932;-68
2022/09/23 01:55:51;;;;;;;16.23;14.55;;;;;;;;;;4424486;32;20038;-68
2022/09/23 01:58:20;;;;;;;18.05;14.27;;;;;;;;;;4423411;32;20048;-69
2022/09/23 02:01:01;;;;;;;21.92;14.85;;;;;;;;;;4423295;32;20090;-68
2022/09/23 02:03:32;;;;;;;16.42;14.25;;;;;;;;;;4423338;32;20029;-67
2022/09/23 02:06:02;;;;;;;18.60;15.35;;;;;;;;;;4429231;32;20018;-68
2022/09/23 02:08:33;;;;;;;19.40;15.30;;;;;;;;;;4439974;32;20045;-68
2022/09/23 02:11:05;;;;;;;21.55;16.00;;;;;;;;;;4438913;32;20211;-68
2022/09/23 02:13:38;;;;;;;17.23;14.40;;;;;;;;;;4439775;32;20021;-68
2022/09/23 02:16:07;;;;;;;18.75;15.73;;;;;;;;;;4438498;32;20045;-68
2022/09/23 02:18:38;;;;;;;19.27;16.50;;;;;;;;;;4439940;32;20053;-68
2022/09/23 02:21:05;;;;;;;18.00;15.80;;;;;;;;;;4438874;32;20082;-66
2022/09/23 02:23:35;;;;;;;18.70;15.55;;;;;;;;;;4438769;32;20369;-67
2022/09/23 02:26:18;;;;;;;17.98;15.20;;;;;;;;;;4430784;32;20387;-66
2022/09/23 02:28:50;;;;;;;19.87;15.73;;;;;;;;;;4408377;32;20026;-67
2022/09/23 02:31:24;;;;;;;19.20;16.62;;;;;;;;;;4423605;32;20120;-67
2022/09/23 02:34:16;;;;;;;20.20;14.85;;;;;;;;;;4422767;32;20022;-67
2022/09/23 02:36:41;;;;;;;18.30;14.10;;;;;;;;;;4384741;32;20379;-69
2022/09/23 02:39:07;;;;;;;16.73;14.90;;;;;;;;;;4422627;32;20026;-67
2022/09/23 02:41:36;;;;;;;19.40;17.27;;;;;;;;;;4422692;32;20030;-67
2022/09/23 02:44:05;;;;;;;18.40;15.25;;;;;;;;;;4408221;32;20048;-67
2022/09/23 02:46:30;;;;;;;17.23;14.18;;;;;;;;;;4436081;32;20071;-67
2022/09/23 02:48:59;;;;;;;16.25;13.55;;;;;;;;;;4437429;32;20022;-68
2022/09/23 02:51:24;;;;;;;19.33;15.32;;;;;;;;;;4421929;32;20044;-66
2022/09/23 02:53:49;;;;;;;;;;;;;;;;;;4421910;32;20045;-66
2022/09/23 02:56:16;;;;;;;16.58;13.73;;;;;;;;;;4422951;32;19929;-67
2022/09/23 02:58:41;;;;;;;18.37;15.63;;;;;;;;;;4409186;32;20364;-67
2022/09/23 03:01:22;;;;;;;18.52;14.73;;;;;;;;;;4422045;32;20022;-67
2022/09/23 03:03:47;;;;;;;19.95;13.20;;;;;;;;;;4422975;32;20453;-68
2022/09/23 03:06:22;;;;;;;17.40;14.20;;;;;;;;;;4423444;32;20067;-67
2022/09/23 03:08:54;;;;;;;20.37;14.43;;;;;;;;;;4423417;32;20129;-66
2022/09/23 03:11:20;;;;;;;18.95;13.52;;;;;;;;;;4423312;32;20084;-66
2022/09/23 03:13:54;;;;;;;17.33;13.70;;;;;;;;;;4421645;32;20378;-65
2022/09/23 03:16:20;;;;;;;18.10;13.13;;;;;;;;;;4423682;32;20026;-68
2022/09/23 03:18:49;;;;;;;14.75;13.18;;;;;;;;;;4421915;32;20052;-66
2022/09/23 03:21:20;;;;;;;17.23;14.05;;;;;;;;;;4422057;32;20101;-67
2022/09/23 03:23:46;;;;;;;17.02;15.20;;;;;;;;;;4422748;32;20026;-66
2022/09/23 03:26:15;;;;;;;16.90;12.63;;;;;;;;;;4433670;32;20017;-67
2022/09/23 03:28:42;;;;;;;15.00;13.40;;;;;;;;;;4422865;32;20408;-67
2022/09/23 03:31:08;;;;;;;15.57;13.88;;;;;;;;;;4436973;32;20051;-67
2022/09/23 03:33:34;;;;;;;18.83;12.65;;;;;;;;;;4438516;32;20027;-67
2022/09/23 03:38:49;;;;;;;18.83;14.95;;;;;;;;;;4423060;32;20091;-67
2022/09/23 03:41:18;;;;;;;17.67;13.30;;;;;;;;;;4425151;32;20061;-64
2022/09/23 03:43:44;;;;;;;14.48;13.02;;;;;;;;;;4436549;32;20398;-68
2022/09/23 03:46:11;;;;;;;17.55;14.02;;;;;;;;;;4423902;32;20083;-66
2022/09/23 03:48:36;;;;;;;17.80;14.38;;;;;;;;;;4422172;32;20052;-69
2022/09/23 03:51:12;;;;;;;18.02;13.48;;;;;;;;;;4423038;32;20022;-67
2022/09/23 03:53:38;;;;;;;16.80;13.13;;;;;;;;;;4436378;32;20087;-66
2022/09/23 03:56:03;;;;;;;16.23;13.60;;;;;;;;;;4437980;32;20053;-66
2022/09/23 03:58:28;;;;;;;;;;;;;;;;;;4438636;32;20069;-66
2022/09/23 04:00:54;;;;;;;13.65;12.13;;;;;;;;;;4435780;32;20334;-64
2022/09/23 04:03:19;;;;;;;15.27;12.77;;;;;;;;;;4436345;32;20426;-68
2022/09/23 04:05:44;;;;;;;;;;;;;;;;;;4423069;32;20060;-68
2022/09/23 04:08:10;;;;;;;17.70;12.63;;;;;;;;;;4435608;32;20406;-69
2022/09/23 04:10:39;;;;;;;15.73;12.20;;;;;;;;;;4437469;32;20033;-70
2022/09/23 04:13:04;;;;;;;15.13;12.63;;;;;;;;;;4436632;32;20052;-70
2022/09/23 04:15:29;;;;;;;17.42;12.40;;;;;;;;;;4435601;32;20033;-68
2022/09/23 04:17:54;;;;;;;;;;;;;;;;;;4429137;32;20407;-68
2022/09/23 04:20:20;;;;;;;15.25;12.23;;;;;;;;;;4431217;32;19937;-69
2022/09/23 04:22:45;;;;;;;;;;;;;;;;;;4436888;32;20392;-69
2022/09/23 04:25:10;;;;;;;14.20;12.32;;;;;;;;;;4437979;32;19933;-69
2022/09/23 04:27:35;;;;;;;17.10;12.40;;;;;;;;;;4429555;32;20340;-67
2022/09/23 04:30:01;;;;;;;13.93;12.45;;;;;;;;;;4422587;32;20025;-68
2022/09/23 04:32:26;;;;;;;;;;;;;;;;;;4421217;32;20026;-69
2022/09/23 04:34:51;;;;;;;15.48;13.25;;;;;;;;;;4422022;32;19996;-65
2022/09/23 04:37:16;;;;;;;13.30;11.88;;;;;;;;;;4421452;32;20380;-70
2022/09/23 04:39:42;;;;;;;;;;;;;;;;;;4422633;32;20087;-66
2022/09/23 04:42:07;;;;;;;19.85;12.25;;;;;;;;;;4420631;32;20307;-68
2022/09/23 04:44:33;;;;;;;;;;;;;;;;;;4406836;32;20030;-66
2022/09/23 04:46:58;;;;;;;17.58;13.57;;;;;;;;;;4433295;32;19949;-70
2022/09/23 04:49:25;;;;;;;14.80;12.48;;;;;;;;;;4436452;32;20351;-68
2022/09/23 04:51:50;;;;;;;22.42;13.82;;;;;;;;;;4437538;32;20056;-69
2022/09/23 04:54:15;;;;;;;17.45;13.38;;;;;;;;;;4436496;32;20305;-68
2022/09/23 04:56:41;;;;;;;19.62;11.85;;;;;;;;;;4437213;32;20061;-69
2022/09/23 04:59:06;;;;;;;;;;;;;;;;;;4436222;32;20021;-69
2022/09/23 05:01:33;;;;;;;19.70;12.50;;;;;;;;;;4435695;32;19989;-69
2022/09/23 05:04:01;;;;;;;20.05;13.07;;;;;;;;;;4432870;32;20432;-69
2022/09/23 05:06:26;;;;;;;17.77;12.57;;;;;;;;;;4429078;32;20034;-68
2022/09/23 05:08:53;;;;;;;13.62;12.20;;;;;;;;;;4436057;32;20363;-67
2022/09/23 05:11:18;;;;;;;15.43;12.57;;;;;;;;;;4435888;32;20030;-66
2022/09/23 05:13:45;;;;;;;15.93;12.15;;;;;;;;;;4422135;32;20084;-68
2022/09/23 05:16:11;;;;;;;15.15;11.98;;;;;;;;;;4435651;32;20412;-69
2022/09/23 05:18:43;;;;;;;16.00;12.10;;;;;;;;;;4439356;32;20017;-69
2022/09/23 05:21:09;;;;;;;18.48;13.13;;;;;;;;;;4439517;32;20461;-69
2022/09/23 05:23:34;;;;;;;20.37;12.85;;;;;;;;;;4439213;32;20037;-70
2022/09/23 05:26:01;;;;;;;13.57;11.25;;;;;;;;;;4438743;32;20066;-67
2022/09/23 05:28:31;;;;;;;15.23;12.52;;;;;;;;;;4439483;32;20017;-70
2022/09/23 05:34:19;;;;;;;26.65;12.85;;;;;;;;;;4353393;32;20093;-69
2022/09/23 05:36:45;;;;;;;19.23;13.23;;;;;;;;;;4360605;33;20036;-70
2022/09/23 05:39:10;;;;;;;19.87;12.77;;;;;;;;;;4405924;32;20052;-68
2022/09/23 06:06:55;;;;;;;17.75;11.65;;;;;;;;;;4366706;32;20055;-69
2022/09/23 06:10:02;;;;;;;18.87;11.82;;;;;;;;;;4422690;32;20026;-70
2022/09/23 06:12:26;;;;;;;15.35;11.55;;;;;;;;;;4421997;32;20025;-70
2022/09/23 06:14:54;;;;;;;16.00;12.63;;;;;;;;;;4422479;32;20022;-69
2022/09/23 06:17:20;;;;;;;18.45;11.98;;;;;;;;;;4436633;32;20448;-70
2022/09/23 06:20:22;;;;;;;42.35;30.92;;;;;;;;;;4439151;32;20017;-69
2022/09/23 06:22:51;;;;;;;20.23;12.13;;;;;;;;;;4438891;32;20108;-69
2022/09/23 06:25:34;;;;;;;19.30;12.45;;;;;;;;;;4438064;32;20033;-70
2022/09/23 06:27:59;;;;;;;18.35;12.10;;;;;;;;;;4438848;32;20078;-70
2022/09/23 06:30:33;;;;;;;;;;;;;;;;;;4431765;32;20607;-70
2022/09/23 06:32:59;;;;;;;20.35;12.37;;;;;;;;;;4432859;32;19937;-69
2022/09/23 06:35:25;;;;;;;15.05;10.65;;;;;;;;;;4437078;32;20096;-68
2022/09/23 06:37:51;;;;;;;19.60;12.15;;;;;;;;;;4436870;32;20025;-63
2022/09/23 06:40:16;;;;;;;15.60;10.88;;;;;;;;;;4423527;32;20440;-63
2022/09/23 06:42:42;;;;;;;16.73;11.70;;;;;;;;;;4431257;32;20064;-69
2022/09/23 06:45:11;;;;;;;32.97;13.23;;;;;;;;;;4422016;32;20367;-71
2022/09/23 06:47:57;;;;;;;15.45;11.43;;;;;;;;;;4422312;32;20038;-69
2022/09/23 06:50:26;;;;;;;15.70;9.82;;;;;;;;;;4420726;32;20094;-69
2022/09/23 06:52:54;;;;;;;14.93;10.70;;;;;;;;;;4422022;32;20368;-68
2022/09/23 06:55:20;;;;;;;19.10;11.73;;;;;;;;;;4423414;32;20061;-69
2022/09/23 06:57:45;;;;;;;17.37;11.75;;;;;;;;;;4422087;32;20298;-70
2022/09/23 07:00:11;;;;;;;13.68;10.60;;;;;;;;;;4422573;32;20412;-67
2022/09/23 07:02:39;;;;;;;13.07;10.65;;;;;;;;;;4421635;32;20453;-67
2022/09/23 07:05:04;;;;;;;13.30;10.80;;;;;;;;;;4436750;32;20017;-67
2022/09/23 07:07:30;;;;;;;17.75;10.43;;;;;;;;;;4436772;32;20059;-66
2022/09/23 07:09:55;;;;;;;;;;;;;;;;;;4433185;32;20332;-67
2022/09/23 07:12:20;;;;;;;12.48;10.52;;;;;;;;;;4422182;32;19988;-69
2022/09/23 07:14:45;;;;;;;18.45;11.52;;;;;;;;;;4408709;32;20341;-68
2022/09/23 07:17:11;;;;;;;16.00;10.45;;;;;;;;;;4423506;32;20452;-68
2022/09/23 07:19:36;;;;;;;26.17;10.18;;;;;;;;;;4422424;32;20045;-68
2022/09/23 07:22:02;;;;;;;20.35;10.32;;;;;;;;;;4421888;32;20044;-69
2022/09/23 07:24:27;;;;;;;;;;;;;;;;;;4433196;32;20109;-70
2022/09/23 07:26:53;;;;;;;11.80;10.00;;;;;;;;;;4436929;32;19966;-67
2022/09/23 07:29:19;;;;;;;14.77;9.93;;;;;;;;;;4422656;32;20030;-64
2022/09/23 07:31:44;;;;;;;16.02;9.68;;;;;;;;;;4422374;32;20048;-68
2022/09/23 07:34:10;;;;;;;15.88;9.07;;;;;;;;;;4436723;32;20434;-65
2022/09/23 07:36:39;;;;;;;20.67;9.10;;;;;;;;;;4423383;32;20025;-70
2022/09/23 07:39:05;;;;;;;33.13;9.93;;;;;;;;;;4424669;32;20343;-71
2022/09/23 07:41:30;;;;;;;21.02;10.05;;;;;;;;;;4421958;32;20023;-71
2022/09/23 07:43:57;;;;;;;17.10;10.25;;;;;;;;;;4422447;32;20045;-70
2022/09/23 07:46:36;;;;;;;23.48;11.15;;;;;;;;;;4421103;32;20367;-70
2022/09/23 07:49:05;;;;;;;22.40;10.75;;;;;;;;;;4421352;32;20022;-72
2022/09/23 07:51:45;;;;;;;16.48;9.60;;;;;;;;;;4422702;32;20018;-70
2022/09/23 07:54:32;;;;;;;14.45;10.20;;;;;;;;;;4437747;32;20396;-70
2022/09/23 07:56:58;;;;;;;16.62;10.02;;;;;;;;;;4436880;32;20052;-70
2022/09/23 07:59:23;;;;;;;17.10;10.13;;;;;;;;;;4436994;32;20021;-67
2022/09/23 08:01:49;;;;;;;;;;;;;;;;;;4432386;32;20062;-69
2022/09/23 08:04:16;;;;;;;13.85;9.80;;;;;;;;;;4407678;32;19934;-70
2022/09/23 08:06:52;;;;;;;22.55;10.32;;;;;;;;;;4421433;32;20022;-68
2022/09/23 08:09:19;;;;;;;15.32;9.45;;;;;;;;;;4422461;32;20059;-71
2022/09/23 08:11:44;;;;;;;18.37;10.02;;;;;;;;;;4421256;32;20033;-65
2022/09/23 08:14:11;;;;;;;15.40;9.90;;;;;;;;;;4420656;32;20091;-64
2022/09/23 08:16:36;;;;;;;14.87;9.20;;;;;;;;;;4421312;32;20049;-62
2022/09/23 08:19:02;;;;;;;12.10;9.00;;;;;;;;;;4422677;32;20352;-63
2022/09/23 08:21:27;;;;;;;14.63;10.07;;;;;;;;;;4421370;32;20412;-65
2022/09/23 08:23:55;;;;;;;15.70;10.25;;;;;;;;;;4420869;32;20340;-66
2022/09/23 08:26:20;;;;;;;21.85;11.15;;;;;;;;;;4422174;32;20066;-68
2022/09/23 08:29:22;;;;;;;23.77;10.63;;;;;;;;;;4421426;32;20023;-70
2022/09/23 08:44:40;;;;;;;18.35;9.15;;;;;;;;;;4420966;32;20520;-70
2022/09/23 08:47:12;;;;;;;11.45;8.48;;;;;;;;;;4422905;32;20033;-69
2022/09/23 08:50:03;;;;;;;19.15;9.27;;;;;;;;;;4425556;32;20045;-71
2022/09/23 08:52:34;;;;;;;17.77;8.95;;;;;;;;;;4424354;32;20083;-69
2022/09/23 08:55:06;;;;;;;11.30;7.30;;;;;;;;;;4447766;32;20095;-68
2022/09/23 08:57:45;;;;;;;13.62;7.55;;;;;;;;;;4425019;32;20079;-70
2022/09/23 09:00:42;;;;;;;12.90;8.05;;;;;;;;;;4436584;32;20048;-70
2022/09/23 09:03:21;;;;;;;16.77;7.90;;;;;;;;;;4432851;32;20022;-68
2022/09/23 09:05:46;;;;;;;16.50;7.95;;;;;;;;;;4407188;32;20091;-68
2022/09/23 09:08:26;;;;;;;14.50;7.72;;;;;;;;;;4406520;32;20031;-70
2022/09/23 09:10:57;;;;;;;13.00;8.07;;;;;;;;;;4420635;32;20080;-69
2022/09/23 09:13:31;;;;;;;11.02;7.62;;;;;;;;;;4420538;32;20037;-70
2022/09/23 09:16:14;;;;;;;12.48;7.70;;;;;;;;;;4420697;32;20344;-70
2022/09/23 09:24:45;;;;;;;10.40;7.25;;;;;;;;;;4419356;32;20407;-70
2022/09/23 09:27:41;;;;;;;;;;;;;;;;;;;;;
2022/09/23 09:30:25;;;;;;;;;;;;;;;;;;;;;
2022/09/23 09:42:14;;;;;;;13.55;7.50;;;;;;;;;;4410708;32;20087;-70
2022/09/23 09:44:48;;;;;;;12.37;7.80;;;;;;;;;;4433799;32;20057;-69
2022/09/23 09:47:32;;;;;;;17.20;8.02;;;;;;;;;;4421134;32;20072;-70
2022/09/23 09:53:13;;;;;;;14.48;7.80;;;;;;;;;;4406839;32;20121;-69
2022/09/23 09:55:39;;;;;;;13.23;6.75;;;;;;;;;;4419222;32;20403;-64
2022/09/23 09:58:04;;;;;;;11.65;7.50;;;;;;;;;;4428349;32;20056;-67
2022/09/23 10:00:29;;;;;;;16.75;7.65;;;;;;;;;;4434374;32;20081;-67
2022/09/23 10:06:19;;;;;;;14.07;7.25;;;;;;;;;;4360771;32;20069;-69
2022/09/23 10:49:11;;;;;;;10.32;7.37;;;;;;;;;;4373459;32;20073;-70
2022/09/23 11:04:21;;;;;;;14.68;7.60;;;;;;;;;;4284668;33;20051;-70
2022/09/23 11:07:09;;;;;;;12.18;7.12;;;;;;;;;;4321851;33;20062;-69
2022/09/23 11:09:54;;;;;;;12.93;6.93;;;;;;;;;;4325436;33;20068;-72
2022/09/23 11:12:25;;;;;;;13.13;7.45;;;;;;;;;;4417501;32;20099;-70
2022/09/23 11:15:01;;;;;;;47.03;11.90;;;;;;;;;;4429854;32;20068;-70
2022/09/23 11:20:42;;;;;;;12.98;7.37;;;;;;;;;;4395995;32;19937;-68
2022/09/23 11:23:13;;;;;;;14.50;7.47;;;;;;;;;;4366113;32;20062;-70
2022/09/23 11:55:40;;;;;;;13.20;7.07;;;;;;;;;;4383784;32;20053;-68
2022/09/23 12:04:55;;;;;;;8.60;6.30;;;;;;;;;;4334535;33;20075;-71
2022/09/23 12:06:53;;;;;;;;;;;;;;;;;;4342103;32;20407;-70
2022/09/23 12:09:21;;;;;;;10.20;6.90;;;;;;;;;;4387850;32;19953;-71
2022/09/23 12:11:49;;;;;;;13.75;6.75;;;;;;;;;;4403995;32;20022;-71
2022/09/23 12:14:25;;;;;;;17.00;6.72;;;;;;;;;;4433794;32;20268;-70
2022/09/23 12:16:56;;;;;;;19.75;6.93;;;;;;;;;;4432999;32;20049;-70
2022/09/23 12:19:36;;;;;;;12.98;6.10;;;;;;;;;;4433583;32;20064;-70
2022/09/23 12:22:15;;;;;;;13.13;6.62;;;;;;;;;;4434109;32;20033;-70
2022/09/23 12:24:45;;;;;;;11.07;7.22;;;;;;;;;;4432677;32;20054;-71
2022/09/23 12:27:30;;;;;;;9.65;6.75;;;;;;;;;;4432750;32;20278;-71
2022/09/23 12:30:01;;;;;;;12.10;6.35;;;;;;;;;;4432223;32;20060;-71
2022/09/23 12:32:29;;;;;;;19.40;7.97;;;;;;;;;;4432284;32;20049;-71
2022/09/23 12:34:55;;;;;;;12.30;7.00;;;;;;;;;;4418974;32;20128;-71
2022/09/23 12:37:30;;;;;;;10.70;6.95;;;;;;;;;;4431315;32;20412;-70
2022/09/23 12:40:00;;;;;;;15.27;7.15;;;;;;;;;;4432441;32;20042;-69
2022/09/23 12:42:26;;;;;;;11.88;7.43;;;;;;;;;;4432532;32;20450;-70
2022/09/23 12:45:11;;;;;;;13.18;7.03;;;;;;;;;;4433656;32;20045;-70
2022/09/23 12:47:37;;;;;;;11.52;6.93;;;;;;;;;;4432430;32;20025;-70
2022/09/23 12:50:22;;;;;;;15.35;6.82;;;;;;;;;;4433144;32;20201;-70
2022/09/23 12:52:47;;;;;;;11.15;6.15;;;;;;;;;;4433321;32;20403;-71
2022/09/23 12:55:18;;;;;;;10.43;5.18;;;;;;;;;;4432516;32;20064;-69
2022/09/23 12:57:44;;;;;;;11.98;5.28;;;;;;;;;;4432058;32;20014;-69
2022/09/23 13:00:14;;;;;;;10.88;5.97;;;;;;;;;;4407975;32;20087;-69
2022/09/23 13:02:46;;;;;;;7.70;5.20;;;;;;;;;;4420857;32;20069;-65
2022/09/23 13:07:58;;;;;;;13.10;6.12;;;;;;;;;;4421795;32;20068;-65
2022/09/23 13:10:32;;;;;;;9.60;6.12;;;;;;;;;;4438687;32;20200;-70
2022/09/23 13:12:58;;;;;;;11.07;6.30;;;;;;;;;;4450633;32;20026;-69
2022/09/23 13:15:28;;;;;;;10.60;7.22;;;;;;;;;;4421800;32;20053;-69
2022/09/23 13:18:12;;;;;;;41.28;8.90;;;;;;;;;;4423381;32;20023;-69
2022/09/23 13:30:18;;;;;;;;;;;;;;;;;;;;;
2022/09/23 13:32:49;;;;;;;12.05;8.20;;;;;;;;;;4417206;32;20474;-70
2022/09/23 13:35:18;;;;;;;10.75;8.27;;;;;;;;;;4430934;32;20102;-69
2022/09/23 13:37:46;;;;;;;14.07;9.02;;;;;;;;;;4433344;32;20029;-69
2022/09/23 13:40:19;;;;;;;19.33;10.27;;;;;;;;;;4432364;32;20030;-70
2022/09/23 13:48:54;;;;;;;23.35;8.55;;;;;;;;;;4432692;32;20095;-69
2022/09/23 13:57:29;;;;;;;40.30;10.93;;;;;;;;;;4370700;32;20088;-69
2022/09/23 14:00:15;;;;;;;35.80;12.37;;;;;;;;;;4406046;32;20046;-69
2022/09/23 14:02:42;;;;;;;17.62;11.45;;;;;;;;;;4415904;32;20034;-69
2022/09/23 14:05:56;;;;;;;20.33;9.93;;;;;;;;;;4421871;32;20026;-69
2022/09/23 14:07:56;;;;;;;13.32;9.25;;;;;;;;;;4413521;32;20026;-71
2022/09/23 14:10:30;;;;;;;11.75;8.23;;;;;;;;;;4419371;32;20095;-71
2022/09/23 14:12:55;;;;;;;17.12;8.98;;;;;;;;;;4416651;32;20081;-73
2022/09/23 14:15:21;;;;;;;23.10;7.97;;;;;;;;;;4419980;32;20026;-71
2022/09/23 14:17:51;;;;;;;19.17;8.95;;;;;;;;;;4418240;32;20038;-71
2022/09/23 14:20:18;;;;;;;12.63;8.55;;;;;;;;;;4418879;32;20026;-71
2022/09/23 14:22:44;;;;;;;11.07;8.38;;;;;;;;;;4419860;32;20030;-69
2022/09/23 14:25:43;;;;;;;17.58;9.10;;;;;;;;;;4419021;32;20061;-70
2022/09/23 14:28:11;;;;;;;13.62;9.23;;;;;;;;;;4417910;32;20015;-70
2022/09/23 14:30:42;;;;;;;13.75;8.45;;;;;;;;;;4419972;32;20038;-71
2022/09/23 14:33:11;;;;;;;19.35;10.40;;;;;;;;;;4419483;32;20014;-70
2022/09/23 14:35:45;;;;;;;15.75;9.73;;;;;;;;;;4406760;32;20022;-71
2022/09/23 14:41:24;;;;;;;17.30;10.05;;;;;;;;;;4388216;32;20519;-70
2022/09/23 14:44:02;;;;;;;13.88;10.40;;;;;;;;;;4387813;32;20030;-70
2022/09/23 14:46:35;;;;;;;16.37;10.13;;;;;;;;;;4412057;32;20034;-70
2022/09/23 14:49:04;;;;;;;15.45;9.77;;;;;;;;;;4419106;32;20084;-70
2022/09/23 14:51:48;;;;;;;15.52;11.35;;;;;;;;;;4413269;32;20014;-70
2022/09/23 14:54:25;;;;;;;17.75;11.02;;;;;;;;;;4406154;32;20034;-70
2022/09/23 14:56:51;;;;;;;17.33;13.00;;;;;;;;;;4416001;32;20061;-71
2022/09/23 14:59:26;;;;;;;18.27;12.70;;;;;;;;;;4421978;32;20079;-70
2022/09/23 15:01:52;;;;;;;17.25;13.02;;;;;;;;;;4421769;32;20056;-70
2022/09/23 15:04:20;;;;;;;20.30;13.85;;;;;;;;;;4423213;32;20017;-70
2022/09/23 15:06:53;;;;;;;22.40;14.25;;;;;;;;;;4421177;32;20092;-70
2022/09/23 15:09:23;;;;;;;24.80;14.63;;;;;;;;;;4422591;32;20022;-70
2022/09/23 15:11:52;;;;;;;18.10;14.73;;;;;;;;;;4422444;32;20022;-70
2022/09/23 15:14:18;;;;;;;26.87;15.43;;;;;;;;;;4422686;32;20041;-70
2022/09/23 15:16:44;;;;;;;23.90;17.10;;;;;;;;;;4422221;32;20045;-70
2022/09/23 15:19:18;;;;;;;25.98;17.45;;;;;;;;;;4423653;32;20046;-71
2022/09/23 15:21:44;;;;;;;24.20;18.70;;;;;;;;;;4421405;32;20052;-70
2022/09/23 15:24:28;;;;;;;23.20;18.67;;;;;;;;;;4421603;32;20095;-70
2022/09/23 15:26:56;;;;;;;24.98;17.65;;;;;;;;;;4422029;32;20018;-70
2022/09/23 15:29:49;;;;;;;28.60;18.20;;;;;;;;;;4421888;32;20100;-70
2022/09/23 15:32:18;;;;;;;26.10;17.98;;;;;;;;;;4413896;32;20048;-70
2022/09/23 15:35:14;;;;;;;23.90;18.80;;;;;;;;;;4421479;32;20055;-70
2022/09/23 15:43:40;;;;;;;27.67;21.23;;;;;;;;;;4374174;32;20498;-70
2022/09/23 15:49:37;;;;;;;31.37;21.33;;;;;;;;;;4378154;32;20369;-70
2022/09/23 15:57:35;;;;;;;30.85;23.08;;;;;;;;;;4402181;32;20390;-71
2022/09/23 16:06:14;;;;;;;31.77;25.67;;;;;;;;;;4359263;32;20109;-72
2022/09/23 16:12:19;;;;;;;39.47;25.92;;;;;;;;;;4344119;33;20069;-73
2022/09/23 17:06:55;;;;;;;62.47;48.13;;;;;;;;;;4309348;33;20586;-72
2022/09/23 18:18:34;;;;;;;48.85;38.33;;;;;;;;;;4372536;32;20053;-71
2022/09/23 18:41:09;;;;;;;37.40;29.63;;;;;;;;;;4390835;32;20041;-71
2022/09/23 19:17:30;;;;;;;21.73;18.98;;;;;;;;;;4343667;32;20526;-71
2022/09/23 19:19:57;;;;;;;20.88;18.50;;;;;;;;;;4374250;32;20065;-71
2022/09/23 19:22:44;;;;;;;21.15;16.70;;;;;;;;;;4374417;32;20132;-70
2022/09/23 19:28:12;;;;;;;21.58;18.83;;;;;;;;;;4411495;32;20098;-70
2022/09/23 19:37:15;;;;;;;21.55;16.52;;;;;;;;;;4431876;32;20429;-71
2022/09/23 19:39:49;;;;;;;21.60;19.30;;;;;;;;;;4437717;32;20061;-70
2022/09/23 21:20:20;;;;;;;35.22;28.17;;;;;;;;;;4437977;32;20018;-72
